createdAt,value
2018-06-04T00:00:08.612Z,93.50
2018-06-04T00:02:37.449Z,93.10
2018-06-04T00:05:06.490Z,93.00
2018-06-04T00:07:35.370Z,93.40
2018-06-04T00:10:04.310Z,93.10
2018-06-04T00:12:33.133Z,93.40
2018-06-04T00:17:30.409Z,93.70
2018-06-04T00:22:27.780Z,93.80
2018-06-04T00:27:25.110Z,94.40
2018-06-04T00:29:53.953Z,94.40
2018-06-04T00:32:22.933Z,94.40
2018-06-04T00:34:51.729Z,94.40
2018-06-04T00:37:25.739Z,94.20
2018-06-04T00:39:54.659Z,94.70
2018-06-04T00:44:52.029Z,95.40
2018-06-04T00:47:21.757Z,95.80
2018-06-04T00:49:51.989Z,96.20
2018-06-04T00:52:20.904Z,96.60
2018-06-04T00:54:49.819Z,96.80
2018-06-04T00:57:18.759Z,97.00
2018-06-04T00:59:47.649Z,96.80
2018-06-04T01:02:17.659Z,96.70
2018-06-04T01:04:46.580Z,96.80
2018-06-04T01:07:15.493Z,96.90
2018-06-04T01:09:44.399Z,96.70
2018-06-04T01:14:46.038Z,95.70
2018-06-04T01:17:14.857Z,95.80
2018-06-04T01:22:13.596Z,95.90
2018-06-04T01:24:42.499Z,96.10
2018-06-04T01:27:11.399Z,96.30
2018-06-04T01:29:41.294Z,96.60
2018-06-04T01:32:15.297Z,96.90
2018-06-04T01:34:44.618Z,96.90
2018-06-04T01:37:13.489Z,96.80
2018-06-04T01:39:42.410Z,96.90
2018-06-04T01:42:11.276Z,96.70
2018-06-04T01:44:40.270Z,96.60
2018-06-04T01:47:15.531Z,96.70
2018-06-04T01:49:44.452Z,96.90
2018-06-04T01:52:13.379Z,97.00
2018-06-04T01:54:44.395Z,97.00
2018-06-04T01:57:17.957Z,97.20
2018-06-04T01:59:47.821Z,97.20
2018-06-04T02:02:16.769Z,97.40
2018-06-04T02:04:45.761Z,97.50
2018-06-04T02:07:14.730Z,97.20
2018-06-04T02:09:43.614Z,97.10
2018-06-04T02:12:12.569Z,97.00
2018-06-04T02:14:41.470Z,96.90
2018-06-04T02:17:10.377Z,96.90
2018-06-04T02:19:39.350Z,97.10
2018-06-04T02:22:08.299Z,96.90
2018-06-04T02:24:37.283Z,96.80
2018-06-04T02:27:08.093Z,96.80
2018-06-04T02:29:36.960Z,97.20
2018-06-04T02:32:05.960Z,96.80
2018-06-04T02:34:34.801Z,96.70
2018-06-04T02:37:07.270Z,97.20
2018-06-04T02:39:36.221Z,97.40
2018-06-04T02:42:05.238Z,97.30
2018-06-04T02:44:34.480Z,97.50
2018-06-04T02:49:32.050Z,97.30
2018-06-04T02:54:35.919Z,97.40
2018-06-04T02:57:04.900Z,98.10
2018-06-04T02:59:33.798Z,97.70
2018-06-04T03:02:02.761Z,97.90
2018-06-04T03:04:31.701Z,97.80
2018-06-04T03:07:00.730Z,97.70
2018-06-04T03:11:58.110Z,98.10
2018-06-04T03:14:33.501Z,98.50
2018-06-04T03:17:04.848Z,98.20
2018-06-04T03:19:33.810Z,98.10
2018-06-04T03:22:02.689Z,98.30
2018-06-04T03:24:33.358Z,98.40
2018-06-04T03:27:02.248Z,98.40
2018-06-04T03:29:31.132Z,98.20
2018-06-04T03:32:00.092Z,98.10
2018-06-04T03:34:29.000Z,98.10
2018-06-04T03:36:59.579Z,97.80
2018-06-04T03:39:30.085Z,97.40
2018-06-04T03:41:59.035Z,97.50
2018-06-04T03:44:28.090Z,97.80
2018-06-04T03:46:57.001Z,98.10
2018-06-04T03:51:58.371Z,98.30
2018-06-04T03:54:27.296Z,98.40
2018-06-04T03:56:59.677Z,98.80
2018-06-04T03:59:28.597Z,99.50
2018-06-04T04:01:57.525Z,99.90
2018-06-04T04:04:26.389Z,99.90
2018-06-04T04:09:26.522Z,99.90
2018-06-04T04:14:23.987Z,99.90
2018-06-04T04:16:52.823Z,99.90
2018-06-04T04:19:21.760Z,99.90
2018-06-04T04:21:50.665Z,99.90
2018-06-04T04:24:19.626Z,99.90
2018-06-04T04:26:48.583Z,99.90
2018-06-04T04:29:17.509Z,99.90
2018-06-04T04:31:57.394Z,99.90
2018-06-04T04:34:26.279Z,99.90
2018-06-04T04:39:25.238Z,99.90
2018-06-04T04:41:56.171Z,99.90
2018-06-04T04:44:25.209Z,99.90
2018-06-04T04:46:54.225Z,99.90
2018-06-04T04:49:23.804Z,99.90
2018-06-04T04:51:52.720Z,99.90
2018-06-04T04:54:21.673Z,99.90
2018-06-04T04:56:50.943Z,99.90
2018-06-04T04:59:19.820Z,99.90
2018-06-04T05:01:48.769Z,99.90
2018-06-04T05:04:17.777Z,99.90
2018-06-04T05:06:46.617Z,99.90
2018-06-04T05:09:15.671Z,99.90
2018-06-04T05:11:44.543Z,99.90
2018-06-04T05:19:33.346Z,99.90
2018-06-04T05:24:33.992Z,99.90
2018-06-04T05:27:02.830Z,99.90
2018-06-04T05:29:31.678Z,99.90
2018-06-04T05:32:00.504Z,99.90
2018-06-04T05:34:29.331Z,99.90
2018-06-04T05:39:26.694Z,99.90
2018-06-04T05:44:23.972Z,99.90
2018-06-04T05:51:50.137Z,99.90
2018-06-04T05:54:19.011Z,99.90
2018-06-04T05:56:47.824Z,99.90
2018-06-04T05:59:16.687Z,99.90
2018-06-04T06:01:45.651Z,99.90
2018-06-04T06:04:14.470Z,99.90
2018-06-04T06:14:08.736Z,99.90
2018-06-04T06:16:37.567Z,99.90
2018-06-04T06:19:06.416Z,99.90
2018-06-04T06:21:35.308Z,99.90
2018-06-04T06:24:04.128Z,99.90
2018-06-04T06:26:32.983Z,99.90
2018-06-04T06:29:01.810Z,99.90
2018-06-04T06:31:30.679Z,99.90
2018-06-04T06:33:59.557Z,99.90
2018-06-04T06:36:28.378Z,99.90
2018-06-04T06:38:57.289Z,99.90
2018-06-04T06:43:57.613Z,99.90
2018-06-04T06:46:26.469Z,99.90
2018-06-04T06:48:55.273Z,99.90
2018-06-04T06:51:24.137Z,99.90
2018-06-04T06:53:53.040Z,99.90
2018-06-04T06:56:21.851Z,99.90
2018-06-04T06:58:50.722Z,99.90
2018-06-04T07:01:19.610Z,99.90
2018-06-04T07:03:48.436Z,99.90
2018-06-04T07:06:17.285Z,99.90
2018-06-04T07:08:46.099Z,99.90
2018-06-04T07:11:15.001Z,99.90
2018-06-04T07:13:43.855Z,99.90
2018-06-04T07:16:12.700Z,99.90
2018-06-04T07:18:41.557Z,99.90
2018-06-04T07:21:10.440Z,99.90
2018-06-04T07:23:39.260Z,99.90
2018-06-04T07:26:08.140Z,99.90
2018-06-04T07:28:37.002Z,99.90
2018-06-04T07:31:05.849Z,99.90
2018-06-04T07:33:34.754Z,99.90
2018-06-04T07:36:10.505Z,99.90
2018-06-04T07:38:39.530Z,99.90
2018-06-04T07:41:08.396Z,99.90
2018-06-04T07:43:37.276Z,99.90
2018-06-04T07:46:06.109Z,99.40
2018-06-04T07:48:34.943Z,98.50
2018-06-04T07:51:03.819Z,97.70
2018-06-04T07:53:32.651Z,97.30
2018-06-04T07:56:01.522Z,96.10
2018-06-04T07:58:30.380Z,96.80
2018-06-04T08:00:59.206Z,97.00
2018-06-04T08:03:28.073Z,95.70
2018-06-04T08:05:56.910Z,95.90
2018-06-04T08:08:25.769Z,95.60
2018-06-04T08:11:01.041Z,95.70
2018-06-04T08:13:29.934Z,95.30
2018-06-04T08:15:58.780Z,93.70
2018-06-04T08:18:27.617Z,94.00
2018-06-04T08:20:56.433Z,93.40
2018-06-04T08:28:22.175Z,93.70
2018-06-04T08:33:19.465Z,95.40
2018-06-04T08:35:48.314Z,94.00
2018-06-04T08:38:17.138Z,94.80
2018-06-04T08:40:46.010Z,94.10
2018-06-04T08:45:43.334Z,93.40
2018-06-04T08:48:12.145Z,94.40
2018-06-04T08:50:41.040Z,93.50
2018-06-04T08:53:09.914Z,93.70
2018-06-04T08:55:38.789Z,93.60
2018-06-04T08:58:07.763Z,91.60
2018-06-04T09:00:36.673Z,92.50
2018-06-04T09:03:05.500Z,92.00
2018-06-04T09:08:02.784Z,92.20
2018-06-04T09:10:31.710Z,91.10
2018-06-04T09:13:00.518Z,92.40
2018-06-04T09:15:29.372Z,91.30
2018-06-04T09:17:58.212Z,92.50
2018-06-04T09:20:27.082Z,90.10
2018-06-04T09:22:55.930Z,88.90
2018-06-04T09:25:24.838Z,90.40
2018-06-04T09:27:53.731Z,90.70
2018-06-04T09:30:22.770Z,91.70
2018-06-04T09:32:51.678Z,92.50
2018-06-04T09:37:49.527Z,89.70
2018-06-04T09:40:18.410Z,88.10
2018-06-04T09:42:47.324Z,85.70
2018-06-04T10:19:13.613Z,73.50
2018-06-04T10:21:42.982Z,70.70
2018-06-04T10:24:11.860Z,63.30
2018-06-04T10:26:40.746Z,59.50
2018-06-04T10:29:09.617Z,56.60
2018-06-04T10:31:38.493Z,55.30
2018-06-04T10:34:07.359Z,53.70
2018-06-04T10:36:36.200Z,52.80
2018-06-04T10:39:07.320Z,51.60
2018-06-04T10:41:36.194Z,50.80
2018-06-04T10:44:05.412Z,48.90
2018-06-04T10:46:34.292Z,46.70
2018-06-04T10:49:03.228Z,47.00
2018-06-04T10:51:32.092Z,47.90
2018-06-04T10:54:00.918Z,46.50
2018-06-04T10:56:29.725Z,46.40
2018-06-04T10:58:58.569Z,46.20
2018-06-04T11:01:27.383Z,45.70
2018-06-04T11:03:56.239Z,46.10
2018-06-04T11:06:25.076Z,45.70
2018-06-04T11:08:53.990Z,45.90
2018-06-04T11:11:22.885Z,45.10
2018-06-04T11:13:51.747Z,45.10
2018-06-04T11:16:20.628Z,43.80
2018-06-04T11:18:49.581Z,43.70
2018-06-04T11:21:18.380Z,43.20
2018-06-04T11:26:15.688Z,43.60
2018-06-04T11:28:44.584Z,43.00
2018-06-04T11:31:13.427Z,42.30
2018-06-04T11:33:42.333Z,43.30
2018-06-04T11:36:11.211Z,43.70
2018-06-04T11:38:40.141Z,42.50
2018-06-04T11:41:09.010Z,42.80
2018-06-04T11:43:37.890Z,43.10
2018-06-04T11:48:35.251Z,40.80
2018-06-04T11:53:32.738Z,42.30
2018-06-04T11:56:01.630Z,42.40
2018-06-04T11:58:30.771Z,43.90
2018-06-04T12:00:59.662Z,46.20
2018-06-04T12:03:28.582Z,47.60
2018-06-04T12:05:57.469Z,49.20
2018-06-04T12:08:26.315Z,50.40
2018-06-04T12:10:55.172Z,49.50
2018-06-04T12:13:24.027Z,49.50
2018-06-04T12:15:52.888Z,49.90
2018-06-04T12:18:21.780Z,50.00
2018-06-04T12:20:50.648Z,49.70
2018-06-04T12:23:19.492Z,49.90
2018-06-04T12:25:48.340Z,49.90
2018-06-04T12:28:17.267Z,50.40
2018-06-04T12:30:46.270Z,51.40
2018-06-04T12:33:15.147Z,51.00
2018-06-04T12:35:44.029Z,50.80
2018-06-04T12:38:12.989Z,50.00
2018-06-04T12:40:41.905Z,49.00
2018-06-04T12:43:10.868Z,48.70
2018-06-04T12:45:39.837Z,49.70
2018-06-04T12:48:08.679Z,49.50
2018-06-04T12:50:37.560Z,49.10
2018-06-04T12:53:06.411Z,49.60
2018-06-04T12:55:35.263Z,48.50
2018-06-04T12:58:04.083Z,50.30
2018-06-04T13:00:33.041Z,49.30
2018-06-04T13:03:02.146Z,49.00
2018-06-04T13:05:31.060Z,49.00
2018-06-04T13:07:59.899Z,47.40
2018-06-04T13:10:28.772Z,48.40
2018-06-04T13:12:57.619Z,47.50
2018-06-04T13:17:54.997Z,47.90
2018-06-04T13:20:23.925Z,48.20
2018-06-04T13:22:52.756Z,48.60
2018-06-04T13:25:21.651Z,47.40
2018-06-04T13:27:50.535Z,46.20
2018-06-04T13:30:19.387Z,46.90
2018-06-04T13:32:48.237Z,47.40
2018-06-04T13:35:17.132Z,47.30
2018-06-04T13:37:45.973Z,47.60
2018-06-04T13:40:14.890Z,47.60
2018-06-04T13:45:14.260Z,47.20
2018-06-04T13:47:43.131Z,48.10
2018-06-04T13:50:12.496Z,48.00
2018-06-04T13:55:09.789Z,47.60
2018-06-04T13:57:38.598Z,47.20
2018-06-04T14:00:07.468Z,46.90
2018-06-04T14:02:36.309Z,46.40
2018-06-04T14:05:05.175Z,46.50
2018-06-04T14:07:34.041Z,47.10
2018-06-04T14:10:02.896Z,48.20
2018-06-04T14:15:01.104Z,47.90
2018-06-04T14:17:30.543Z,47.70
2018-06-04T14:19:59.407Z,47.00
2018-06-04T14:22:28.247Z,46.40
2018-06-04T14:24:57.125Z,45.60
2018-06-04T14:27:25.997Z,46.20
2018-06-04T14:29:54.891Z,45.80
2018-06-04T14:32:23.744Z,46.10
2018-06-04T14:34:52.712Z,45.90
2018-06-04T14:37:21.536Z,46.50
2018-06-04T14:39:50.373Z,46.40
2018-06-04T14:42:19.189Z,46.30
2018-06-04T14:44:48.292Z,44.90
2018-06-04T14:47:17.158Z,45.50
2018-06-04T14:49:46.286Z,46.70
2018-06-04T14:52:15.110Z,46.30
2018-06-04T14:54:43.937Z,45.40
2018-06-04T14:59:41.285Z,45.30
2018-06-04T15:02:10.126Z,44.20
2018-06-04T15:04:38.981Z,45.40
2018-06-04T15:07:07.807Z,45.20
2018-06-04T15:09:36.639Z,45.40
2018-06-04T15:12:05.514Z,47.00
2018-06-04T15:14:34.377Z,47.00
2018-06-04T15:17:03.265Z,47.70
2018-06-04T15:19:32.357Z,49.10
2018-06-04T15:22:01.276Z,49.10
2018-06-04T15:24:30.172Z,49.40
2018-06-04T15:26:59.326Z,50.40
2018-06-04T15:29:28.309Z,50.00
2018-06-04T15:31:57.274Z,49.50
2018-06-04T15:36:54.854Z,45.10
2018-06-04T15:39:24.222Z,46.90
2018-06-04T15:41:53.219Z,44.60
2018-06-04T15:44:22.276Z,44.90
2018-06-04T15:46:52.188Z,45.40
2018-06-04T15:49:21.070Z,45.80
2018-06-04T15:51:50.157Z,46.40
2018-06-04T15:54:19.057Z,47.60
2018-06-04T15:56:48.537Z,48.60
2018-06-04T15:59:17.422Z,49.10
2018-06-04T16:01:46.430Z,49.00
2018-06-04T16:06:43.880Z,50.30
2018-06-04T16:09:12.911Z,50.80
2018-06-04T16:11:42.091Z,51.70
2018-06-04T16:16:39.689Z,53.60
2018-06-04T16:19:08.781Z,54.70
2018-06-04T16:21:37.764Z,56.50
2018-06-04T16:24:06.854Z,57.80
2018-06-04T16:29:04.419Z,62.00
2018-06-04T16:34:02.464Z,63.00
2018-06-04T16:36:31.563Z,64.00
2018-06-04T16:39:00.976Z,65.70
2018-06-04T16:41:30.124Z,68.00
2018-06-04T16:43:59.608Z,68.90
2018-06-04T16:53:57.082Z,71.70
2018-06-04T16:56:26.584Z,73.30
2018-06-04T16:58:56.007Z,73.00
2018-06-04T17:03:53.603Z,72.20
2018-06-04T17:06:22.550Z,72.90
2018-06-04T17:08:51.638Z,73.60
2018-06-04T17:11:22.200Z,74.70
2018-06-04T17:16:19.516Z,75.50
2018-06-04T17:18:48.390Z,76.30
2018-06-04T17:21:17.617Z,78.00
2018-06-04T17:23:46.475Z,78.20
2018-06-04T17:26:15.337Z,81.30
2018-06-04T17:31:12.750Z,83.00
2018-06-04T17:33:41.669Z,83.60
2018-06-04T17:36:10.584Z,83.70
2018-06-04T17:38:39.866Z,84.90
2018-06-04T17:41:10.364Z,85.00
2018-06-04T17:43:40.250Z,85.00
2018-06-04T17:46:09.421Z,85.00
2018-06-04T17:48:38.335Z,85.80
2018-06-04T17:51:07.274Z,87.10
2018-06-04T17:53:36.238Z,86.90
2018-06-04T17:56:05.150Z,88.00
2018-06-04T17:58:34.028Z,89.00
2018-06-04T18:01:02.879Z,90.00
2018-06-04T18:06:00.247Z,90.10
2018-06-04T18:11:02.913Z,89.10
2018-06-04T18:13:34.910Z,88.30
2018-06-04T18:16:04.891Z,87.40
2018-06-04T18:18:34.015Z,87.30
2018-06-04T18:23:35.878Z,85.50
2018-06-04T18:28:35.390Z,89.40
2018-06-04T18:31:04.381Z,90.50
2018-06-04T18:33:34.075Z,90.60
2018-06-04T18:36:02.929Z,90.80
2018-06-04T18:38:31.809Z,91.50
2018-06-04T18:41:00.735Z,90.40
2018-06-04T18:43:30.033Z,92.30
2018-06-04T18:46:02.120Z,94.10
2018-06-04T18:48:31.299Z,94.70
2018-06-04T18:51:00.273Z,94.80
2018-06-04T18:53:30.403Z,95.60
2018-06-04T18:55:59.346Z,95.80
2018-06-04T19:00:56.803Z,96.40
2018-06-04T19:03:26.440Z,96.00
2018-06-04T19:05:55.589Z,97.10
2018-06-04T19:08:25.359Z,97.90
2018-06-04T19:10:54.399Z,98.00
2018-06-04T19:13:23.260Z,98.20
2018-06-04T19:15:52.149Z,98.80
2018-06-04T19:18:21.059Z,99.90
2018-06-04T19:20:50.051Z,99.90
2018-06-04T19:23:18.936Z,99.80
2018-06-04T19:25:47.900Z,99.40
2018-06-04T19:28:16.780Z,98.80
2018-06-04T19:30:45.645Z,98.80
2018-06-04T19:33:14.564Z,98.80
2018-06-04T19:35:43.417Z,98.40
2018-06-04T19:38:12.280Z,97.40
2018-06-04T19:40:42.048Z,97.00
2018-06-04T19:43:10.918Z,96.20
2018-06-04T19:48:08.396Z,95.90
2018-06-04T19:50:45.129Z,96.60
2018-06-04T19:53:14.776Z,96.80
2018-06-04T19:55:43.705Z,96.20
2018-06-04T19:58:12.540Z,95.70
2018-06-04T20:00:41.470Z,96.00
2018-06-04T20:03:10.328Z,96.00
2018-06-04T20:08:07.654Z,96.40
2018-06-04T20:10:36.479Z,96.30
2018-06-04T20:15:33.859Z,96.30
2018-06-04T20:18:02.827Z,96.20
2018-06-04T20:20:31.803Z,96.20
2018-06-04T20:23:00.724Z,96.10
2018-06-04T20:30:26.694Z,96.10
2018-06-04T20:32:55.590Z,96.10
2018-06-04T20:35:24.589Z,95.50
2018-06-04T20:37:53.467Z,95.60
2018-06-04T20:40:22.381Z,95.60
2018-06-04T20:42:51.271Z,95.40
2018-06-04T20:45:20.163Z,95.20
2018-06-04T20:47:49.070Z,95.80
2018-06-04T20:50:18.015Z,96.60
2018-06-04T20:55:15.460Z,97.70
2018-06-04T20:57:44.298Z,97.80
2018-06-04T21:00:13.242Z,98.10
2018-06-04T21:02:42.104Z,98.50
2018-06-04T21:05:11.014Z,98.70
2018-06-04T21:07:39.925Z,99.20
2018-06-04T21:12:37.259Z,99.90
2018-06-04T21:15:06.250Z,99.90
2018-06-04T21:17:35.119Z,99.90
2018-06-04T21:20:04.156Z,99.90
2018-06-04T21:22:33.040Z,99.90
2018-06-04T21:25:01.920Z,99.90
2018-06-04T21:27:30.769Z,99.90
2018-06-04T21:29:59.669Z,99.90
2018-06-04T21:32:28.561Z,99.90
2018-06-04T21:34:57.396Z,99.90
2018-06-04T21:37:26.247Z,99.90
2018-06-04T21:39:55.072Z,99.90
2018-06-04T21:42:23.971Z,99.90
2018-06-04T21:44:52.875Z,99.90
2018-06-04T21:47:21.718Z,99.90
2018-06-04T21:49:50.536Z,99.90
2018-06-04T21:52:19.429Z,99.90
2018-06-04T21:57:16.778Z,99.90
2018-06-04T21:59:45.678Z,99.90
2018-06-04T22:02:14.558Z,99.90
2018-06-04T22:04:43.449Z,99.90
2018-06-04T22:07:12.281Z,99.90
2018-06-04T22:09:41.162Z,99.90
2018-06-04T22:12:09.988Z,99.90
2018-06-04T22:14:38.873Z,99.90
2018-06-04T22:17:07.848Z,99.90
2018-06-04T22:19:36.708Z,99.90
2018-06-04T22:27:02.560Z,99.90
2018-06-04T22:31:59.841Z,99.90
2018-06-04T22:34:28.752Z,99.90
2018-06-04T22:36:57.628Z,99.90
2018-06-04T22:39:26.481Z,99.90
2018-06-04T22:41:55.369Z,99.90
2018-06-04T22:44:24.225Z,99.90
2018-06-04T22:46:53.102Z,99.90
2018-06-04T22:49:21.960Z,99.90
2018-06-04T22:51:50.817Z,99.90
2018-06-04T22:54:19.700Z,99.90
2018-06-04T22:56:48.550Z,99.90
2018-06-04T22:59:17.461Z,99.90
2018-06-04T23:01:46.381Z,99.90
2018-06-04T23:04:15.240Z,99.90
2018-06-04T23:06:44.114Z,99.90
2018-06-04T23:09:12.960Z,99.90
2018-06-04T23:11:41.850Z,99.90
2018-06-04T23:14:10.708Z,99.90
2018-06-04T23:16:39.601Z,99.90
2018-06-04T23:19:08.483Z,99.90
2018-06-04T23:21:37.320Z,99.90
2018-06-04T23:26:34.692Z,99.90
2018-06-04T23:29:03.556Z,99.90
2018-06-04T23:31:32.438Z,99.90
2018-06-04T23:34:01.237Z,99.90
2018-06-04T23:36:30.152Z,99.90
2018-06-04T23:41:27.534Z,99.90
2018-06-04T23:43:56.390Z,99.90
2018-06-04T23:46:25.285Z,99.90
2018-06-04T23:48:54.169Z,99.90
2018-06-04T23:51:23.029Z,99.90
2018-06-04T23:53:51.901Z,99.90
2018-06-04T23:56:20.767Z,99.90
